sensor_id;sensor_type;location;lat;lon;timestamp;temperature;humidity
51557;DHT22;38766;53.194;5.532;2022-12-07T00:01:15;5.60;99.90
51557;DHT22;38766;53.194;5.532;2022-12-07T00:03:42;5.60;99.90
51557;DHT22;38766;53.194;5.532;2022-12-07T00:06:10;5.50;99.90
51557;DHT22;38766;53.194;5.532;2022-12-07T00:08:36;5.50;99.90
51557;DHT22;38766;53.194;5.532;2022-12-07T00:11:08;5.50;99.90
51557;DHT22;38766;53.194;5.532;2022-12-07T00:13:34;5.50;99.90
51557;DHT22;38766;53.194;5.532;2022-12-07T00:16:08;5.50;99.90
51557;DHT22;38766;53.194;5.532;2022-12-07T00:18:35;5.50;99.90
51557;DHT22;38766;53.194;5.532;2022-12-07T00:21:05;5.40;99.90
51557;DHT22;38766;53.194;5.532;2022-12-07T00:23:32;5.40;99.90
51557;DHT22;38766;53.194;5.532;2022-12-07T00:26:06;5.40;99.90
51557;DHT22;38766;53.194;5.532;2022-12-07T00:28:33;5.40;99.90
51557;DHT22;38766;53.194;5.532;2022-12-07T00:31:04;5.40;99.90
51557;DHT22;38766;53.194;5.532;2022-12-07T00:33:30;5.40;99.90
51557;DHT22;38766;53.194;5.532;2022-12-07T00:35:57;5.40;99.90
51557;DHT22;38766;53.194;5.532;2022-12-07T00:38:23;5.40;99.90
51557;DHT22;38766;53.194;5.532;2022-12-07T00:41:06;5.40;99.90
51557;DHT22;38766;53.194;5.532;2022-12-07T00:43:32;5.40;99.90
51557;DHT22;38766;53.194;5.532;2022-12-07T00:45:58;5.30;99.90
51557;DHT22;38766;53.194;5.532;2022-12-07T00:48:24;5.30;99.90
51557;DHT22;38766;53.194;5.532;2022-12-07T00:50:50;5.30;99.90
51557;DHT22;38766;53.194;5.532;2022-12-07T00:53:16;5.30;99.90
51557;DHT22;38766;53.194;5.532;2022-12-07T00:55:42;5.30;99.90
51557;DHT22;38766;53.194;5.532;2022-12-07T00:58:08;5.30;99.90
51557;DHT22;38766;53.194;5.532;2022-12-07T01:00:36;5.30;99.90
51557;DHT22;38766;53.194;5.532;2022-12-07T01:03:02;5.30;99.90
51557;DHT22;38766;53.194;5.532;2022-12-07T01:05:28;5.30;99.90
51557;DHT22;38766;53.194;5.532;2022-12-07T01:07:54;5.30;99.90
51557;DHT22;38766;53.194;5.532;2022-12-07T01:10:19;5.30;99.90
51557;DHT22;38766;53.194;5.532;2022-12-07T01:12:45;5.30;99.90
51557;DHT22;38766;53.194;5.532;2022-12-07T01:15:11;5.30;99.90
51557;DHT22;38766;53.194;5.532;2022-12-07T01:17:36;5.30;99.90
51557;DHT22;38766;53.194;5.532;2022-12-07T01:20:02;5.30;99.90
51557;DHT22;38766;53.194;5.532;2022-12-07T01:22:28;5.30;99.90
51557;DHT22;38766;53.194;5.532;2022-12-07T01:24:54;5.40;99.90
51557;DHT22;38766;53.194;5.532;2022-12-07T01:27:19;5.40;99.90
51557;DHT22;38766;53.194;5.532;2022-12-07T01:29:45;5.40;99.90
51557;DHT22;38766;53.194;5.532;2022-12-07T01:32:11;5.40;99.90
51557;DHT22;38766;53.194;5.532;2022-12-07T01:34:37;5.40;99.90
51557;DHT22;38766;53.194;5.532;2022-12-07T01:37:03;5.40;99.90
51557;DHT22;38766;53.194;5.532;2022-12-07T01:39:28;5.40;99.90
51557;DHT22;38766;53.194;5.532;2022-12-07T01:41:54;5.40;99.90
51557;DHT22;38766;53.194;5.532;2022-12-07T01:44:29;5.40;99.90
51557;DHT22;38766;53.194;5.532;2022-12-07T01:47:03;5.40;99.90
51557;DHT22;38766;53.194;5.532;2022-12-07T01:49:41;5.40;99.90
51557;DHT22;38766;53.194;5.532;2022-12-07T01:52:10;5.40;99.90
51557;DHT22;38766;53.194;5.532;2022-12-07T01:54:38;5.40;99.90
51557;DHT22;38766;53.194;5.532;2022-12-07T01:57:04;5.40;99.90
51557;DHT22;38766;53.194;5.532;2022-12-07T01:59:31;5.40;99.90
51557;DHT22;38766;53.194;5.532;2022-12-07T02:01:57;5.40;99.90
51557;DHT22;38766;53.194;5.532;2022-12-07T02:04:23;5.40;99.90
51557;DHT22;38766;53.194;5.532;2022-12-07T02:06:50;5.30;99.90
51557;DHT22;38766;53.194;5.532;2022-12-07T02:09:16;5.50;99.90
51557;DHT22;38766;53.194;5.532;2022-12-07T02:11:42;5.40;99.90
51557;DHT22;38766;53.194;5.532;2022-12-07T02:14:07;5.40;99.90
51557;DHT22;38766;53.194;5.532;2022-12-07T02:25:33;5.40;99.90
51557;DHT22;38766;53.194;5.532;2022-12-07T02:30:50;5.40;99.90
51557;DHT22;38766;53.194;5.532;2022-12-07T02:33:31;5.30;99.90
51557;DHT22;38766;53.194;5.532;2022-12-07T02:36:06;5.30;99.90
51557;DHT22;38766;53.194;5.532;2022-12-07T02:39:07;5.40;99.90
51557;DHT22;38766;53.194;5.532;2022-12-07T02:41:43;5.30;99.90
51557;DHT22;38766;53.194;5.532;2022-12-07T02:44:21;5.30;99.90
51557;DHT22;38766;53.194;5.532;2022-12-07T02:46:54;5.30;99.90
51557;DHT22;38766;53.194;5.532;2022-12-07T02:49:22;5.30;99.90
51557;DHT22;38766;53.194;5.532;2022-12-07T02:51:49;5.20;99.90
51557;DHT22;38766;53.194;5.532;2022-12-07T02:54:17;5.20;99.90
51557;DHT22;38766;53.194;5.532;2022-12-07T03:12:33;5.20;99.90
51557;DHT22;38766;53.194;5.532;2022-12-07T03:15:08;5.20;99.90
51557;DHT22;38766;53.194;5.532;2022-12-07T03:17:40;5.20;99.90
51557;DHT22;38766;53.194;5.532;2022-12-07T03:20:09;5.20;99.90
51557;DHT22;38766;53.194;5.532;2022-12-07T03:22:38;5.10;99.90
51557;DHT22;38766;53.194;5.532;2022-12-07T03:25:09;5.20;99.90
51557;DHT22;38766;53.194;5.532;2022-12-07T03:27:43;5.20;99.90
51557;DHT22;38766;53.194;5.532;2022-12-07T03:30:14;5.20;99.90
51557;DHT22;38766;53.194;5.532;2022-12-07T03:32:45;5.20;99.90
51557;DHT22;38766;53.194;5.532;2022-12-07T03:35:22;5.20;99.90
51557;DHT22;38766;53.194;5.532;2022-12-07T03:38:16;5.10;99.90
51557;DHT22;38766;53.194;5.532;2022-12-07T03:41:00;5.10;99.90
51557;DHT22;38766;53.194;5.532;2022-12-07T03:43:29;5.10;99.90
51557;DHT22;38766;53.194;5.532;2022-12-07T03:49:00;5.00;99.90
51557;DHT22;38766;53.194;5.532;2022-12-07T03:51:38;5.00;99.90
51557;DHT22;38766;53.194;5.532;2022-12-07T03:54:13;5.00;99.90
51557;DHT22;38766;53.194;5.532;2022-12-07T03:56:40;5.00;99.90
51557;DHT22;38766;53.194;5.532;2022-12-07T03:59:07;5.00;99.90
51557;DHT22;38766;53.194;5.532;2022-12-07T04:01:33;5.00;99.90
51557;DHT22;38766;53.194;5.532;2022-12-07T04:03:59;5.00;99.90
51557;DHT22;38766;53.194;5.532;2022-12-07T04:06:24;5.00;99.90
51557;DHT22;38766;53.194;5.532;2022-12-07T04:08:50;5.00;99.90
51557;DHT22;38766;53.194;5.532;2022-12-07T04:11:15;5.00;99.90
51557;DHT22;38766;53.194;5.532;2022-12-07T04:13:41;5.10;99.90
51557;DHT22;38766;53.194;5.532;2022-12-07T04:16:25;5.00;99.90
51557;DHT22;38766;53.194;5.532;2022-12-07T04:18:51;5.00;99.90
51557;DHT22;38766;53.194;5.532;2022-12-07T04:21:16;5.00;99.90
51557;DHT22;38766;53.194;5.532;2022-12-07T04:23:42;5.00;99.90
51557;DHT22;38766;53.194;5.532;2022-12-07T04:26:08;5.00;99.90
51557;DHT22;38766;53.194;5.532;2022-12-07T04:28:33;4.90;99.90
51557;DHT22;38766;53.194;5.532;2022-12-07T04:30:59;4.90;99.90
51557;DHT22;38766;53.194;5.532;2022-12-07T04:33:24;4.90;99.90
51557;DHT22;38766;53.194;5.532;2022-12-07T04:35:50;4.90;99.90
51557;DHT22;38766;53.194;5.532;2022-12-07T04:38:15;4.90;99.90
51557;DHT22;38766;53.194;5.532;2022-12-07T04:40:41;4.90;99.90
51557;DHT22;38766;53.194;5.532;2022-12-07T04:43:07;5.00;99.90
51557;DHT22;38766;53.194;5.532;2022-12-07T04:45:32;5.00;99.90
51557;DHT22;38766;53.194;5.532;2022-12-07T04:47:58;5.00;99.90
51557;DHT22;38766;53.194;5.532;2022-12-07T04:50:23;5.10;99.90
51557;DHT22;38766;53.194;5.532;2022-12-07T04:52:49;5.10;99.90
51557;DHT22;38766;53.194;5.532;2022-12-07T04:55:15;5.10;99.90
51557;DHT22;38766;53.194;5.532;2022-12-07T04:57:40;5.10;99.90
51557;DHT22;38766;53.194;5.532;2022-12-07T05:00:06;5.00;99.90
51557;DHT22;38766;53.194;5.532;2022-12-07T05:02:32;5.00;99.90
51557;DHT22;38766;53.194;5.532;2022-12-07T05:04:58;5.00;99.90
51557;DHT22;38766;53.194;5.532;2022-12-07T05:07:23;4.90;99.90
51557;DHT22;38766;53.194;5.532;2022-12-07T05:09:49;4.90;99.90
51557;DHT22;38766;53.194;5.532;2022-12-07T05:12:15;4.90;99.90
51557;DHT22;38766;53.194;5.532;2022-12-07T05:14:40;4.90;99.90
51557;DHT22;38766;53.194;5.532;2022-12-07T05:17:06;4.90;99.90
51557;DHT22;38766;53.194;5.532;2022-12-07T05:19:31;4.80;99.90
51557;DHT22;38766;53.194;5.532;2022-12-07T05:21:57;4.80;99.90
51557;DHT22;38766;53.194;5.532;2022-12-07T05:24:23;4.80;99.90
51557;DHT22;38766;53.194;5.532;2022-12-07T05:26:48;4.80;99.90
51557;DHT22;38766;53.194;5.532;2022-12-07T05:29:16;4.70;99.90
51557;DHT22;38766;53.194;5.532;2022-12-07T05:31:42;4.70;99.90
51557;DHT22;38766;53.194;5.532;2022-12-07T05:34:08;4.70;99.90
51557;DHT22;38766;53.194;5.532;2022-12-07T05:36:33;4.70;99.90
51557;DHT22;38766;53.194;5.532;2022-12-07T05:38:59;4.70;99.90
51557;DHT22;38766;53.194;5.532;2022-12-07T05:41:25;4.70;99.90
51557;DHT22;38766;53.194;5.532;2022-12-07T05:44:10;4.70;99.90
51557;DHT22;38766;53.194;5.532;2022-12-07T05:46:35;4.70;99.90
51557;DHT22;38766;53.194;5.532;2022-12-07T05:49:01;4.70;99.90
51557;DHT22;38766;53.194;5.532;2022-12-07T05:51:27;4.70;99.90
51557;DHT22;38766;53.194;5.532;2022-12-07T05:53:53;4.70;99.90
51557;DHT22;38766;53.194;5.532;2022-12-07T05:56:19;4.70;99.90
51557;DHT22;38766;53.194;5.532;2022-12-07T05:58:44;4.70;99.90
51557;DHT22;38766;53.194;5.532;2022-12-07T06:01:29;4.70;99.90
51557;DHT22;38766;53.194;5.532;2022-12-07T06:03:54;4.70;99.90
51557;DHT22;38766;53.194;5.532;2022-12-07T06:06:20;4.70;99.90
51557;DHT22;38766;53.194;5.532;2022-12-07T06:08:46;4.70;99.90
51557;DHT22;38766;53.194;5.532;2022-12-07T06:11:11;4.70;99.90
51557;DHT22;38766;53.194;5.532;2022-12-07T06:13:57;4.70;99.90
51557;DHT22;38766;53.194;5.532;2022-12-07T06:16:22;4.70;99.90
51557;DHT22;38766;53.194;5.532;2022-12-07T06:18:48;4.80;99.90
51557;DHT22;38766;53.194;5.532;2022-12-07T06:21:14;4.70;99.90
51557;DHT22;38766;53.194;5.532;2022-12-07T06:23:39;4.80;99.90
51557;DHT22;38766;53.194;5.532;2022-12-07T06:26:05;4.80;99.90
51557;DHT22;38766;53.194;5.532;2022-12-07T06:28:31;4.80;99.90
51557;DHT22;38766;53.194;5.532;2022-12-07T06:31:00;4.80;99.90
51557;DHT22;38766;53.194;5.532;2022-12-07T06:33:27;4.80;99.90
51557;DHT22;38766;53.194;5.532;2022-12-07T06:35:53;4.80;99.90
51557;DHT22;38766;53.194;5.532;2022-12-07T06:38:18;4.90;99.90
51557;DHT22;38766;53.194;5.532;2022-12-07T06:40:44;4.90;99.90
51557;DHT22;38766;53.194;5.532;2022-12-07T06:43:10;4.90;99.90
51557;DHT22;38766;53.194;5.532;2022-12-07T06:45:35;4.80;99.90
51557;DHT22;38766;53.194;5.532;2022-12-07T06:48:01;4.90;99.90
51557;DHT22;38766;53.194;5.532;2022-12-07T06:50:27;4.90;99.90
51557;DHT22;38766;53.194;5.532;2022-12-07T06:52:52;4.80;99.90
51557;DHT22;38766;53.194;5.532;2022-12-07T06:55:18;4.90;99.90
51557;DHT22;38766;53.194;5.532;2022-12-07T06:57:44;4.90;99.90
51557;DHT22;38766;53.194;5.532;2022-12-07T07:00:10;4.80;99.90
51557;DHT22;38766;53.194;5.532;2022-12-07T07:02:36;4.90;99.90
51557;DHT22;38766;53.194;5.532;2022-12-07T07:05:02;4.90;99.90
51557;DHT22;38766;53.194;5.532;2022-12-07T07:07:28;4.90;99.90
51557;DHT22;38766;53.194;5.532;2022-12-07T07:09:53;4.90;99.90
51557;DHT22;38766;53.194;5.532;2022-12-07T07:12:19;4.90;99.90
51557;DHT22;38766;53.194;5.532;2022-12-07T07:14:44;4.90;99.90
51557;DHT22;38766;53.194;5.532;2022-12-07T07:17:10;4.80;99.90
51557;DHT22;38766;53.194;5.532;2022-12-07T07:19:36;4.80;99.90
51557;DHT22;38766;53.194;5.532;2022-12-07T07:22:03;4.80;99.90
51557;DHT22;38766;53.194;5.532;2022-12-07T07:24:28;4.80;99.90
51557;DHT22;38766;53.194;5.532;2022-12-07T07:26:54;4.80;99.90
51557;DHT22;38766;53.194;5.532;2022-12-07T07:29:20;4.70;99.90
51557;DHT22;38766;53.194;5.532;2022-12-07T07:31:45;4.70;99.90
51557;DHT22;38766;53.194;5.532;2022-12-07T07:34:11;4.70;99.90
51557;DHT22;38766;53.194;5.532;2022-12-07T07:36:36;4.70;99.90
51557;DHT22;38766;53.194;5.532;2022-12-07T07:39:03;4.70;99.90
51557;DHT22;38766;53.194;5.532;2022-12-07T07:41:28;4.70;99.90
51557;DHT22;38766;53.194;5.532;2022-12-07T07:43:54;4.60;99.90
51557;DHT22;38766;53.194;5.532;2022-12-07T07:46:19;4.60;99.90
51557;DHT22;38766;53.194;5.532;2022-12-07T07:48:45;4.60;99.90
51557;DHT22;38766;53.194;5.532;2022-12-07T07:51:11;4.60;99.90
51557;DHT22;38766;53.194;5.532;2022-12-07T07:53:36;4.70;99.90
51557;DHT22;38766;53.194;5.532;2022-12-07T07:56:02;4.70;99.90
51557;DHT22;38766;53.194;5.532;2022-12-07T07:58:28;4.70;99.90
51557;DHT22;38766;53.194;5.532;2022-12-07T08:00:54;4.70;99.90
51557;DHT22;38766;53.194;5.532;2022-12-07T08:03:19;4.70;99.90
51557;DHT22;38766;53.194;5.532;2022-12-07T08:05:45;4.70;99.90
51557;DHT22;38766;53.194;5.532;2022-12-07T08:08:11;4.70;99.90
51557;DHT22;38766;53.194;5.532;2022-12-07T08:10:36;4.80;99.90
51557;DHT22;38766;53.194;5.532;2022-12-07T08:13:02;4.80;99.90
51557;DHT22;38766;53.194;5.532;2022-12-07T08:15:40;4.80;99.90
51557;DHT22;38766;53.194;5.532;2022-12-07T08:18:07;4.70;99.90
51557;DHT22;38766;53.194;5.532;2022-12-07T08:20:33;4.70;99.90
51557;DHT22;38766;53.194;5.532;2022-12-07T08:23:00;4.70;99.90
51557;DHT22;38766;53.194;5.532;2022-12-07T08:25:36;4.70;99.90
51557;DHT22;38766;53.194;5.532;2022-12-07T08:28:26;4.70;99.90
51557;DHT22;38766;53.194;5.532;2022-12-07T08:30:52;4.80;99.90
51557;DHT22;38766;53.194;5.532;2022-12-07T08:33:17;4.80;99.90
51557;DHT22;38766;53.194;5.532;2022-12-07T08:35:47;4.90;99.90
51557;DHT22;38766;53.194;5.532;2022-12-07T08:38:13;4.80;99.90
51557;DHT22;38766;53.194;5.532;2022-12-07T08:40:38;4.80;99.90
51557;DHT22;38766;53.194;5.532;2022-12-07T08:43:04;4.80;99.90
51557;DHT22;38766;53.194;5.532;2022-12-07T08:45:30;4.80;99.90
51557;DHT22;38766;53.194;5.532;2022-12-07T08:48:06;4.90;99.90
51557;DHT22;38766;53.194;5.532;2022-12-07T08:50:34;4.80;99.90
51557;DHT22;38766;53.194;5.532;2022-12-07T08:53:04;4.80;99.90
51557;DHT22;38766;53.194;5.532;2022-12-07T08:55:30;4.90;99.90
51557;DHT22;38766;53.194;5.532;2022-12-07T08:58:00;4.90;99.90
51557;DHT22;38766;53.194;5.532;2022-12-07T09:00:26;4.90;99.90
51557;DHT22;38766;53.194;5.532;2022-12-07T09:02:53;4.90;99.90
51557;DHT22;38766;53.194;5.532;2022-12-07T09:05:19;5.00;99.90
51557;DHT22;38766;53.194;5.532;2022-12-07T09:07:47;5.10;99.90
51557;DHT22;38766;53.194;5.532;2022-12-07T09:10:13;5.10;99.90
51557;DHT22;38766;53.194;5.532;2022-12-07T09:12:39;5.30;99.90
51557;DHT22;38766;53.194;5.532;2022-12-07T09:15:06;5.30;99.90
51557;DHT22;38766;53.194;5.532;2022-12-07T09:17:33;5.40;99.90
51557;DHT22;38766;53.194;5.532;2022-12-07T09:19:59;5.40;99.90
51557;DHT22;38766;53.194;5.532;2022-12-07T09:22:29;5.50;99.90
51557;DHT22;38766;53.194;5.532;2022-12-07T09:24:59;5.60;99.90
51557;DHT22;38766;53.194;5.532;2022-12-07T09:27:25;5.70;99.90
51557;DHT22;38766;53.194;5.532;2022-12-07T09:29:51;5.90;99.90
51557;DHT22;38766;53.194;5.532;2022-12-07T09:32:16;6.10;99.90
51557;DHT22;38766;53.194;5.532;2022-12-07T09:34:42;6.30;99.90
51557;DHT22;38766;53.194;5.532;2022-12-07T09:37:08;6.40;99.90
51557;DHT22;38766;53.194;5.532;2022-12-07T09:39:34;6.60;99.90
51557;DHT22;38766;53.194;5.532;2022-12-07T09:42:03;6.60;99.90
51557;DHT22;38766;53.194;5.532;2022-12-07T09:44:29;6.60;99.90
51557;DHT22;38766;53.194;5.532;2022-12-07T09:46:56;6.60;99.90
51557;DHT22;38766;53.194;5.532;2022-12-07T09:49:24;6.60;99.90
51557;DHT22;38766;53.194;5.532;2022-12-07T09:52:19;6.60;99.90
51557;DHT22;38766;53.194;5.532;2022-12-07T09:54:48;6.60;99.90
51557;DHT22;38766;53.194;5.532;2022-12-07T09:57:14;6.60;99.90
51557;DHT22;38766;53.194;5.532;2022-12-07T09:59:40;6.50;99.90
51557;DHT22;38766;53.194;5.532;2022-12-07T10:02:39;6.50;99.90
51557;DHT22;38766;53.194;5.532;2022-12-07T10:05:21;6.50;99.90
51557;DHT22;38766;53.194;5.532;2022-12-07T10:07:47;6.50;99.90
51557;DHT22;38766;53.194;5.532;2022-12-07T10:10:17;6.50;99.90
51557;DHT22;38766;53.194;5.532;2022-12-07T10:12:59;6.50;99.90
51557;DHT22;38766;53.194;5.532;2022-12-07T10:15:45;6.50;99.90
51557;DHT22;38766;53.194;5.532;2022-12-07T10:18:34;6.40;99.90
51557;DHT22;38766;53.194;5.532;2022-12-07T10:21:20;6.40;99.90
51557;DHT22;38766;53.194;5.532;2022-12-07T10:24:05;6.40;99.90
51557;DHT22;38766;53.194;5.532;2022-12-07T10:26:32;6.50;99.90
51557;DHT22;38766;53.194;5.532;2022-12-07T10:29:16;6.50;99.90
51557;DHT22;38766;53.194;5.532;2022-12-07T10:31:43;6.50;99.90
51557;DHT22;38766;53.194;5.532;2022-12-07T10:34:28;6.50;99.90
51557;DHT22;38766;53.194;5.532;2022-12-07T10:39:53;6.50;99.90
51557;DHT22;38766;53.194;5.532;2022-12-07T10:42:29;6.60;99.90
51557;DHT22;38766;53.194;5.532;2022-12-07T10:45:15;6.50;99.90
51557;DHT22;38766;53.194;5.532;2022-12-07T10:47:59;6.50;99.90
51557;DHT22;38766;53.194;5.532;2022-12-07T10:50:52;6.50;99.90
51557;DHT22;38766;53.194;5.532;2022-12-07T10:53:32;6.50;99.90
51557;DHT22;38766;53.194;5.532;2022-12-07T10:56:32;6.50;99.90
51557;DHT22;38766;53.194;5.532;2022-12-07T11:02:24;6.60;99.90
51557;DHT22;38766;53.194;5.532;2022-12-07T11:10:55;6.70;99.90
51557;DHT22;38766;53.194;5.532;2022-12-07T11:16:52;7.00;99.90
51557;DHT22;38766;53.194;5.532;2022-12-07T11:19:24;7.00;99.90
51557;DHT22;38766;53.194;5.532;2022-12-07T11:22:09;7.10;99.90
51557;DHT22;38766;53.194;5.532;2022-12-07T11:27:40;7.00;99.90
51557;DHT22;38766;53.194;5.532;2022-12-07T11:37:59;7.10;99.90
51557;DHT22;38766;53.194;5.532;2022-12-07T11:40:30;7.10;99.90
51557;DHT22;38766;53.194;5.532;2022-12-07T11:45:34;7.10;99.90
51557;DHT22;38766;53.194;5.532;2022-12-07T11:48:11;7.20;99.90
51557;DHT22;38766;53.194;5.532;2022-12-07T11:50:43;7.30;99.90
51557;DHT22;38766;53.194;5.532;2022-12-07T11:55:57;7.40;99.90
51557;DHT22;38766;53.194;5.532;2022-12-07T12:03:48;7.40;99.90
51557;DHT22;38766;53.194;5.532;2022-12-07T12:06:15;7.40;99.90
51557;DHT22;38766;53.194;5.532;2022-12-07T12:11:45;7.60;99.90
51557;DHT22;38766;53.194;5.532;2022-12-07T12:19:30;7.40;99.90
51557;DHT22;38766;53.194;5.532;2022-12-07T12:22:12;7.40;99.90
51557;DHT22;38766;53.194;5.532;2022-12-07T12:24:40;7.30;99.90
51557;DHT22;38766;53.194;5.532;2022-12-07T12:27:15;7.20;99.90
51557;DHT22;38766;53.194;5.532;2022-12-07T12:29:43;7.10;99.90
51557;DHT22;38766;53.194;5.532;2022-12-07T12:37:53;7.10;99.90
51557;DHT22;38766;53.194;5.532;2022-12-07T12:42:56;7.10;99.90
51557;DHT22;38766;53.194;5.532;2022-12-07T12:45:27;7.00;99.90
51557;DHT22;38766;53.194;5.532;2022-12-07T12:47:56;7.00;99.90
51557;DHT22;38766;53.194;5.532;2022-12-07T12:50:26;6.90;99.90
51557;DHT22;38766;53.194;5.532;2022-12-07T12:52:55;6.80;99.90
51557;DHT22;38766;53.194;5.532;2022-12-07T12:58:30;6.80;99.90
51557;DHT22;38766;53.194;5.532;2022-12-07T13:01:33;6.70;99.90
51557;DHT22;38766;53.194;5.532;2022-12-07T13:04:03;6.70;99.90
51557;DHT22;38766;53.194;5.532;2022-12-07T13:06:39;6.70;99.90
51557;DHT22;38766;53.194;5.532;2022-12-07T13:09:21;6.60;99.90
51557;DHT22;38766;53.194;5.532;2022-12-07T13:11:49;6.70;99.90
51557;DHT22;38766;53.194;5.532;2022-12-07T13:17:00;6.60;99.90
51557;DHT22;38766;53.194;5.532;2022-12-07T13:25:12;6.40;99.90
51557;DHT22;38766;53.194;5.532;2022-12-07T13:27:41;6.30;99.90
51557;DHT22;38766;53.194;5.532;2022-12-07T13:30:19;6.20;99.90
51557;DHT22;38766;53.194;5.532;2022-12-07T13:32:55;6.20;99.90
51557;DHT22;38766;53.194;5.532;2022-12-07T13:35:29;6.00;99.90
51557;DHT22;38766;53.194;5.532;2022-12-07T13:37:56;6.00;99.90
51557;DHT22;38766;53.194;5.532;2022-12-07T13:40:23;6.00;99.90
51557;DHT22;38766;53.194;5.532;2022-12-07T13:42:57;6.00;99.90
51557;DHT22;38766;53.194;5.532;2022-12-07T13:45:27;5.90;99.90
51557;DHT22;38766;53.194;5.532;2022-12-07T13:48:35;5.90;99.90
51557;DHT22;38766;53.194;5.532;2022-12-07T13:51:03;5.90;99.90
51557;DHT22;38766;53.194;5.532;2022-12-07T13:53:29;5.90;99.90
51557;DHT22;38766;53.194;5.532;2022-12-07T13:55:58;5.90;99.90
51557;DHT22;38766;53.194;5.532;2022-12-07T13:58:24;5.90;99.90
51557;DHT22;38766;53.194;5.532;2022-12-07T14:00:50;5.90;99.90
51557;DHT22;38766;53.194;5.532;2022-12-07T14:05:43;5.90;99.90
51557;DHT22;38766;53.194;5.532;2022-12-07T14:13:36;5.90;99.90
51557;DHT22;38766;53.194;5.532;2022-12-07T14:16:22;5.90;99.90
51557;DHT22;38766;53.194;5.532;2022-12-07T14:18:49;5.90;99.90
51557;DHT22;38766;53.194;5.532;2022-12-07T14:21:17;5.90;99.90
51557;DHT22;38766;53.194;5.532;2022-12-07T14:26:28;5.90;99.90
51557;DHT22;38766;53.194;5.532;2022-12-07T14:31:52;5.90;99.90
51557;DHT22;38766;53.194;5.532;2022-12-07T14:34:20;5.90;99.90
51557;DHT22;38766;53.194;5.532;2022-12-07T14:36:46;5.80;99.90
51557;DHT22;38766;53.194;5.532;2022-12-07T14:39:11;5.80;99.90
51557;DHT22;38766;53.194;5.532;2022-12-07T14:41:37;5.80;99.90
51557;DHT22;38766;53.194;5.532;2022-12-07T14:44:22;5.90;99.90
51557;DHT22;38766;53.194;5.532;2022-12-07T14:46:49;5.80;99.90
51557;DHT22;38766;53.194;5.532;2022-12-07T14:49:15;5.80;99.90
51557;DHT22;38766;53.194;5.532;2022-12-07T14:51:41;5.70;99.90
51557;DHT22;38766;53.194;5.532;2022-12-07T14:54:15;5.70;99.90
51557;DHT22;38766;53.194;5.532;2022-12-07T14:56:41;5.70;99.90
51557;DHT22;38766;53.194;5.532;2022-12-07T14:59:07;5.70;99.90
51557;DHT22;38766;53.194;5.532;2022-12-07T15:01:33;5.70;99.90
51557;DHT22;38766;53.194;5.532;2022-12-07T15:03:59;5.60;99.90
51557;DHT22;38766;53.194;5.532;2022-12-07T15:06:24;5.60;99.90
51557;DHT22;38766;53.194;5.532;2022-12-07T15:08:50;5.60;99.90
51557;DHT22;38766;53.194;5.532;2022-12-07T15:11:17;5.50;99.90
51557;DHT22;38766;53.194;5.532;2022-12-07T15:13:42;5.40;99.90
51557;DHT22;38766;53.194;5.532;2022-12-07T15:16:26;5.40;99.90
51557;DHT22;38766;53.194;5.532;2022-12-07T15:18:52;5.30;99.90
51557;DHT22;38766;53.194;5.532;2022-12-07T15:21:18;5.40;99.90
51557;DHT22;38766;53.194;5.532;2022-12-07T15:23:44;5.40;99.90
51557;DHT22;38766;53.194;5.532;2022-12-07T15:26:11;5.40;99.90
51557;DHT22;38766;53.194;5.532;2022-12-07T15:28:37;5.40;99.90
51557;DHT22;38766;53.194;5.532;2022-12-07T15:31:02;5.40;99.90
51557;DHT22;38766;53.194;5.532;2022-12-07T15:33:28;5.40;99.90
51557;DHT22;38766;53.194;5.532;2022-12-07T15:35:53;5.40;99.90
51557;DHT22;38766;53.194;5.532;2022-12-07T15:38:19;5.40;99.90
51557;DHT22;38766;53.194;5.532;2022-12-07T15:40:48;5.40;99.90
51557;DHT22;38766;53.194;5.532;2022-12-07T15:43:14;5.40;99.90
51557;DHT22;38766;53.194;5.532;2022-12-07T15:45:59;5.40;99.90
51557;DHT22;38766;53.194;5.532;2022-12-07T15:48:25;5.30;99.90
51557;DHT22;38766;53.194;5.532;2022-12-07T15:50:50;5.40;99.90
51557;DHT22;38766;53.194;5.532;2022-12-07T15:53:17;5.40;99.90
51557;DHT22;38766;53.194;5.532;2022-12-07T15:55:42;5.40;99.90
51557;DHT22;38766;53.194;5.532;2022-12-07T15:58:08;5.40;99.90
51557;DHT22;38766;53.194;5.532;2022-12-07T16:00:34;5.40;99.90
51557;DHT22;38766;53.194;5.532;2022-12-07T16:02:59;5.40;99.90
51557;DHT22;38766;53.194;5.532;2022-12-07T16:05:25;5.40;99.90
51557;DHT22;38766;53.194;5.532;2022-12-07T16:07:50;5.30;99.90
51557;DHT22;38766;53.194;5.532;2022-12-07T16:10:16;5.30;99.90
51557;DHT22;38766;53.194;5.532;2022-12-07T16:12:42;5.40;99.90
51557;DHT22;38766;53.194;5.532;2022-12-07T16:15:08;5.30;99.90
51557;DHT22;38766;53.194;5.532;2022-12-07T16:17:34;5.40;99.90
51557;DHT22;38766;53.194;5.532;2022-12-07T16:19:59;5.30;99.90
51557;DHT22;38766;53.194;5.532;2022-12-07T16:22:25;5.30;99.90
51557;DHT22;38766;53.194;5.532;2022-12-07T16:24:50;5.30;99.90
51557;DHT22;38766;53.194;5.532;2022-12-07T16:27:16;5.20;99.90
51557;DHT22;38766;53.194;5.532;2022-12-07T16:29:42;5.30;99.90
51557;DHT22;38766;53.194;5.532;2022-12-07T16:32:07;5.30;99.90
51557;DHT22;38766;53.194;5.532;2022-12-07T16:34:33;5.30;99.90
51557;DHT22;38766;53.194;5.532;2022-12-07T16:36:59;5.30;99.90
51557;DHT22;38766;53.194;5.532;2022-12-07T16:39:24;5.30;99.90
51557;DHT22;38766;53.194;5.532;2022-12-07T16:41:50;5.30;99.90
51557;DHT22;38766;53.194;5.532;2022-12-07T16:44:16;5.20;99.90
51557;DHT22;38766;53.194;5.532;2022-12-07T16:46:42;5.20;99.90
51557;DHT22;38766;53.194;5.532;2022-12-07T16:49:14;5.20;99.90
51557;DHT22;38766;53.194;5.532;2022-12-07T16:51:40;5.20;99.90
51557;DHT22;38766;53.194;5.532;2022-12-07T16:54:10;5.20;99.90
51557;DHT22;38766;53.194;5.532;2022-12-07T16:56:36;5.20;99.90
51557;DHT22;38766;53.194;5.532;2022-12-07T16:59:01;5.20;99.90
51557;DHT22;38766;53.194;5.532;2022-12-07T17:01:27;5.20;99.90
51557;DHT22;38766;53.194;5.532;2022-12-07T17:03:53;5.20;99.90
51557;DHT22;38766;53.194;5.532;2022-12-07T17:06:21;5.20;99.90
51557;DHT22;38766;53.194;5.532;2022-12-07T17:08:48;5.20;99.90
51557;DHT22;38766;53.194;5.532;2022-12-07T17:11:16;5.30;99.90
51557;DHT22;38766;53.194;5.532;2022-12-07T17:13:43;5.20;99.90
51557;DHT22;38766;53.194;5.532;2022-12-07T17:16:28;5.20;99.90
51557;DHT22;38766;53.194;5.532;2022-12-07T17:18:54;5.20;99.90
51557;DHT22;38766;53.194;5.532;2022-12-07T17:21:20;5.20;99.90
51557;DHT22;38766;53.194;5.532;2022-12-07T17:23:47;5.20;99.90
51557;DHT22;38766;53.194;5.532;2022-12-07T17:26:15;5.20;99.90
51557;DHT22;38766;53.194;5.532;2022-12-07T17:28:42;5.20;99.90
51557;DHT22;38766;53.194;5.532;2022-12-07T17:31:10;5.20;99.90
51557;DHT22;38766;53.194;5.532;2022-12-07T17:33:37;5.20;99.90
51557;DHT22;38766;53.194;5.532;2022-12-07T17:36:16;5.20;99.90
51557;DHT22;38766;53.194;5.532;2022-12-07T17:38:42;5.20;99.90
51557;DHT22;38766;53.194;5.532;2022-12-07T17:41:19;5.20;99.90
51557;DHT22;38766;53.194;5.532;2022-12-07T17:44:06;5.20;99.90
51557;DHT22;38766;53.194;5.532;2022-12-07T17:46:32;5.20;99.90